Time;durP1;ratioP1;P1;durP2;ratioP2;P2;SDS_P1;SDS_P2;PMS_P1;PMS_P2;Temp;Humidity;BMP_temperature;BMP_pressure;BME280_temperature;BME280_humidity;BME280_pressure;Samples;Min_cycle;Max_cycle;Signal;HPM_P1;HPM_P2
2022/03/13 00:00:13;;;;;;;;;;;20.60;35.50;;;;;;675745;29;1390;-85
2022/03/13 00:00:46;;;;;;;;;;;20.60;35.50;;;;;;675195;29;1518;-89
2022/03/13 00:01:09;;;;;;;;;;;20.60;35.50;;;;;;678602;29;1289;-85
2022/03/13 00:01:33;;;;;;;;;;;20.60;35.50;;;;;;678485;29;1216;-87
2022/03/13 00:01:53;;;;;;;;;;;20.60;36.00;;;;;;679500;29;1538;-84
2022/03/13 00:02:16;;;;;;;;;;;20.60;36.50;;;;;;679719;29;1608;-87
2022/03/13 00:02:37;;;;;;;;;;;20.60;35.80;;;;;;680515;29;1368;-86
2022/03/13 00:02:58;;;;;;;;;;;20.60;35.50;;;;;;680557;29;1300;-92
2022/03/13 00:03:20;;;;;;;;;;;20.60;35.40;;;;;;680269;29;1269;-93
2022/03/13 00:03:40;;;;;;;;;;;20.60;35.40;;;;;;681036;29;1423;-91
2022/03/13 00:04:01;;;;;;;;;;;20.60;36.30;;;;;;678629;29;1265;-88
2022/03/13 00:04:22;;;;;;;;;;;20.60;36.00;;;;;;678814;29;1219;-92
2022/03/13 00:04:50;;;;;;;;;;;20.60;35.40;;;;;;677542;29;1377;-88
2022/03/13 00:05:10;;;;;;;;;;;20.60;35.40;;;;;;678263;29;1552;-91
2022/03/13 00:05:40;;;;;;;;;;;20.60;36.10;;;;;;678067;29;1399;-89
2022/03/13 00:06:00;;;;;;;;;;;20.60;35.70;;;;;;679611;29;1272;-91
2022/03/13 00:06:27;;;;;;;;;;;20.60;35.50;;;;;;678826;29;1352;-88
2022/03/13 00:06:48;;;;;;;;;;;20.60;35.70;;;;;;679838;29;1342;-90
2022/03/13 00:07:18;;;;;;;;;;;20.60;35.60;;;;;;680543;29;1271;-91
2022/03/13 00:07:39;;;;;;;;;;;20.60;36.00;;;;;;679973;29;1284;-84
2022/03/13 00:08:00;;;;;;;;;;;18.10;34.10;;;;;;679702;29;1305;-91
2022/03/13 00:08:27;;;;;;;;;;;20.60;35.90;;;;;;679866;29;1377;-83
2022/03/13 00:08:54;;;;;;;;;;;20.60;35.80;;;;;;677389;29;1421;-88
2022/03/13 00:09:19;;;;;;;;;;;20.60;36.10;;;;;;677174;29;1195;-89
2022/03/13 00:09:39;;;;;;;;;;;20.60;35.50;;;;;;677717;29;1324;-86
2022/03/13 00:10:00;;;;;;;;;;;20.60;35.60;;;;;;676672;29;1630;-82
2022/03/13 00:10:25;;;;;;;;;;;20.60;35.90;;;;;;678239;29;1397;-90
2022/03/13 00:10:47;;;;;;;;;;;20.60;35.50;;;;;;678470;29;1329;-80
2022/03/13 00:11:14;;;;;;;;;;;20.60;35.80;;;;;;679184;29;1354;-85
2022/03/13 00:11:35;;;;;;;;;;;20.60;35.70;;;;;;678920;29;1198;-85
2022/03/13 00:11:55;;;;;;;;;;;20.60;35.70;;;;;;677707;29;1429;-84
2022/03/13 00:12:25;;;;;;;;;;;20.60;36.20;;;;;;677161;29;1155;-84
2022/03/13 00:12:48;;;;;;;;;;;20.60;35.50;;;;;;677774;29;1420;-83
2022/03/13 00:13:15;;;;;;;;;;;20.60;35.40;;;;;;676969;29;1149;-87
2022/03/13 00:13:37;;;;;;;;;;;20.60;35.60;;;;;;676985;29;1399;-85
2022/03/13 00:13:58;;;;;;;;;;;20.60;35.50;;;;;;676741;29;1911;-83
2022/03/13 00:14:24;;;;;;;;;;;20.60;35.60;;;;;;677209;29;1208;-80
2022/03/13 00:14:46;;;;;;;;;;;20.60;35.50;;;;;;676904;29;1262;-84
2022/03/13 00:15:09;;;;;;;;;;;20.60;35.90;;;;;;677071;29;1292;-81
2022/03/13 00:15:35;;;;;;;;;;;20.60;35.40;;;;;;677438;29;1230;-82
2022/03/13 00:15:57;;;;;;;;;;;20.60;35.40;;;;;;678406;29;1323;-87
2022/03/13 00:16:19;;;;;;;;;;;20.60;35.90;;;;;;678730;29;1377;-86
2022/03/13 00:16:39;;;;;;;;;;;20.60;35.80;;;;;;678579;29;1348;-86
2022/03/13 00:17:00;;;;;;;;;;;18.90;34.70;;;;;;678670;29;1146;-87
2022/03/13 00:17:21;;;;;;;;;;;20.60;36.10;;;;;;678893;29;1201;-84
2022/03/13 00:17:42;;;;;;;;;;;20.60;35.80;;;;;;679590;29;1221;-83
2022/03/13 00:18:03;;;;;;;;;;;20.60;35.60;;;;;;676741;29;1161;-81
2022/03/13 00:18:23;;;;;;;;;;;20.60;35.70;;;;;;677237;29;1247;-89
2022/03/13 00:18:46;;;;;;;;;;;20.60;35.50;;;;;;676439;29;1250;-88
2022/03/13 00:19:07;;;;;;;;;;;20.60;35.50;;;;;;674721;29;1295;-84
2022/03/13 00:19:28;;;;;;;;;;;20.60;35.60;;;;;;674175;29;1255;-82
2022/03/13 00:19:49;;;;;;;;;;;20.60;36.10;;;;;;673849;29;1232;-89
2022/03/13 00:20:11;;;;;;;;;;;20.60;35.70;;;;;;675788;29;1451;-87
2022/03/13 00:20:32;;;;;;;;;;;20.60;36.00;;;;;;675087;29;1330;-88
2022/03/13 00:20:52;;;;;;;;;;;20.60;35.90;;;;;;676547;29;1381;-82
2022/03/13 00:21:15;;;;;;;;;;;20.60;36.30;;;;;;677984;29;1285;-86
2022/03/13 00:21:35;;;;;;;;;;;20.60;35.70;;;;;;678095;29;1229;-90
2022/03/13 00:21:56;;;;;;;;;;;20.60;35.80;;;;;;679040;29;1264;-86
2022/03/13 00:22:16;;;;;;;;;;;20.60;35.80;;;;;;678759;29;1492;-88
2022/03/13 00:22:37;;;;;;;;;;;20.60;35.60;;;;;;677379;29;1217;-89
2022/03/13 00:22:58;;;;;;;;;;;20.50;35.60;;;;;;677174;29;1389;-89
2022/03/13 00:23:19;;;;;;;;;;;20.60;35.70;;;;;;676808;29;1429;-83
2022/03/13 00:23:41;;;;;;;;;;;20.60;36.40;;;;;;683079;28;1240;-88
2022/03/13 00:24:02;;;;;;;;;;;20.60;35.80;;;;;;682593;28;1225;-84
2022/03/13 00:24:23;;;;;;;;;;;20.60;35.90;;;;;;683374;28;1224;-84
2022/03/13 00:24:44;;;;;;;;;;;20.60;35.90;;;;;;684872;28;1204;-88
2022/03/13 00:25:08;;;;;;;;;;;20.60;36.90;;;;;;685889;28;1476;-88
2022/03/13 00:25:29;;;;;;;;;;;20.60;36.00;;;;;;685017;28;1144;-86
2022/03/13 00:25:49;;;;;;;;;;;20.60;36.00;;;;;;686360;28;1359;-86
2022/03/13 00:26:11;;;;;;;;;;;20.60;35.80;;;;;;688690;28;1351;-90
2022/03/13 00:26:35;;;;;;;;;;;20.60;36.20;;;;;;688074;28;1289;-90
2022/03/13 00:26:55;;;;;;;;;;;20.50;36.00;;;;;;687939;28;1386;-84
2022/03/13 00:27:16;;;;;;;;;;;20.60;36.90;;;;;;688697;28;1211;-89
2022/03/13 00:27:36;;;;;;;;;;;20.60;36.50;;;;;;687460;28;1110;-86
2022/03/13 00:27:57;;;;;;;;;;;18.60;35.50;;;;;;687357;28;1391;-85
2022/03/13 00:28:17;;;;;;;;;;;20.50;37.00;;;;;;688998;28;1370;-87
2022/03/13 00:28:39;;;;;;;;;;;20.50;36.70;;;;;;688683;28;1168;-83
2022/03/13 00:28:59;;;;;;;;;;;20.50;36.70;;;;;;688778;28;1315;-83
2022/03/13 00:29:20;;;;;;;;;;;20.50;36.80;;;;;;685816;28;1503;-86
2022/03/13 00:29:41;;;;;;;;;;;20.50;37.50;;;;;;685701;28;1243;-83
2022/03/13 00:30:05;;;;;;;;;;;20.50;36.70;;;;;;684088;28;1220;-89
2022/03/13 00:30:26;;;;;;;;;;;20.60;35.80;;;;;;684862;28;1188;-87
2022/03/13 00:30:47;;;;;;;;;;;20.50;36.60;;;;;;685663;28;1170;-82
2022/03/13 00:31:07;;;;;;;;;;;20.60;36.00;;;;;;685501;28;1304;-86
2022/03/13 00:31:28;;;;;;;;;;;20.50;38.10;;;;;;685336;28;1124;-86
2022/03/13 00:31:48;;;;;;;;;;;20.50;36.50;;;;;;685757;28;1309;-84
2022/03/13 00:32:09;;;;;;;;;;;20.60;36.00;;;;;;687746;28;1258;-87
2022/03/13 00:32:29;;;;;;;;;;;20.50;35.90;;;;;;686739;28;1484;-85
2022/03/13 00:32:51;;;;;;;;;;;20.60;35.90;;;;;;686770;28;1251;-90
2022/03/13 00:33:12;;;;;;;;;;;20.60;35.90;;;;;;686214;28;1255;-80
2022/03/13 00:33:33;;;;;;;;;;;20.50;36.50;;;;;;685810;28;1277;-87
2022/03/13 00:33:54;;;;;;;;;;;20.60;35.90;;;;;;686444;28;1992;-85
2022/03/13 00:34:14;;;;;;;;;;;20.60;36.20;;;;;;686769;28;1204;-86
2022/03/13 00:34:36;;;;;;;;;;;20.50;36.60;;;;;;686147;28;1208;-83
2022/03/13 00:34:57;;;;;;;;;;;20.50;36.20;;;;;;685932;28;1453;-82
2022/03/13 00:35:18;;;;;;;;;;;20.50;36.80;;;;;;687120;28;1325;-85
2022/03/13 00:35:39;;;;;;;;;;;20.50;36.00;;;;;;686282;28;1366;-89
2022/03/13 00:35:59;;;;;;;;;;;20.50;35.90;;;;;;684006;28;1463;-88
2022/03/13 00:36:20;;;;;;;;;;;20.50;35.90;;;;;;683823;28;1370;-87
2022/03/13 00:36:41;;;;;;;;;;;20.50;36.00;;;;;;683693;28;1315;-86
2022/03/13 00:37:01;;;;;;;;;;;20.50;36.50;;;;;;684639;28;1332;-84
2022/03/13 00:37:23;;;;;;;;;;;20.50;36.40;;;;;;685239;28;1220;-83
2022/03/13 00:37:44;;;;;;;;;;;20.50;35.80;;;;;;684435;28;1384;-83
2022/03/13 00:38:05;;;;;;;;;;;20.50;35.90;;;;;;684931;28;1731;-85
2022/03/13 00:38:26;;;;;;;;;;;20.50;35.80;;;;;;684883;28;1169;-86
2022/03/13 00:38:47;;;;;;;;;;;20.50;36.40;;;;;;684457;28;1500;-88
2022/03/13 00:39:09;;;;;;;;;;;20.50;36.20;;;;;;685688;28;1449;-84
2022/03/13 00:39:30;;;;;;;;;;;20.50;35.80;;;;;;685045;28;1430;-88
2022/03/13 00:39:51;;;;;;;;;;;20.50;35.80;;;;;;684692;28;1193;-86
2022/03/13 00:40:12;;;;;;;;;;;20.60;36.50;;;;;;684662;28;1240;-86
2022/03/13 00:40:33;;;;;;;;;;;20.50;35.90;;;;;;685290;28;1181;-85
2022/03/13 00:40:55;;;;;;;;;;;20.50;36.10;;;;;;685180;28;1533;-90
2022/03/13 00:41:15;;;;;;;;;;;20.50;36.70;;;;;;685582;28;1294;-85
2022/03/13 00:41:37;;;;;;;;;;;20.50;36.20;;;;;;685446;28;1254;-87
2022/03/13 00:41:58;;;;;;;;;;;20.50;35.90;;;;;;685864;28;1353;-84
2022/03/13 00:42:19;;;;;;;;;;;20.50;36.20;;;;;;685325;28;1176;-89
2022/03/13 00:42:39;;;;;;;;;;;20.50;36.60;;;;;;685558;28;1200;-81
2022/03/13 00:43:00;;;;;;;;;;;19.10;35.40;;;;;;686357;28;1191;-87
2022/03/13 00:43:21;;;;;;;;;;;20.50;36.50;;;;;;686801;28;1125;-84
2022/03/13 00:43:42;;;;;;;;;;;20.50;36.10;;;;;;686251;28;1258;-85
2022/03/13 00:44:02;;;;;;;;;;;20.50;36.30;;;;;;686368;28;1227;-83
2022/03/13 00:44:23;;;;;;;;;;;20.50;36.10;;;;;;685882;28;1409;-83
2022/03/13 00:44:44;;;;;;;;;;;20.50;36.00;;;;;;686108;28;1330;-83
2022/03/13 00:45:05;;;;;;;;;;;20.50;36.10;;;;;;685830;28;1570;-86
2022/03/13 00:45:26;;;;;;;;;;;20.50;35.90;;;;;;686253;28;1330;-86
2022/03/13 00:45:48;;;;;;;;;;;20.50;36.30;;;;;;686699;28;1212;-86
2022/03/13 00:46:08;;;;;;;;;;;20.50;36.20;;;;;;686324;28;1250;-85
2022/03/13 00:46:29;;;;;;;;;;;20.50;36.00;;;;;;686873;28;1103;-85
2022/03/13 00:46:50;;;;;;;;;;;20.50;35.90;;;;;;686420;28;1261;-86
2022/03/13 00:47:11;;;;;;;;;;;20.50;36.10;;;;;;686111;28;1284;-85
2022/03/13 00:47:32;;;;;;;;;;;18.80;35.10;;;;;;685981;28;1275;-87
2022/03/13 00:47:52;;;;;;;;;;;20.50;36.40;;;;;;684787;28;1403;-87
2022/03/13 00:48:13;;;;;;;;;;;19.70;36.00;;;;;;685268;28;1239;-87
2022/03/13 00:48:34;;;;;;;;;;;20.50;36.20;;;;;;683259;28;1223;-88
2022/03/13 00:48:54;;;;;;;;;;;20.50;36.10;;;;;;683186;28;1427;-87
2022/03/13 00:49:15;;;;;;;;;;;20.50;36.20;;;;;;686014;28;1115;-89
2022/03/13 00:49:35;;;;;;;;;;;20.50;36.10;;;;;;685379;28;1220;-90
2022/03/13 00:49:56;;;;;;;;;;;18.50;35.30;;;;;;686194;28;1525;-86
2022/03/13 00:50:17;;;;;;;;;;;20.50;36.10;;;;;;686571;28;1342;-86
2022/03/13 00:50:38;;;;;;;;;;;20.50;36.50;;;;;;688047;28;1297;-90
2022/03/13 00:50:59;;;;;;;;;;;20.50;35.70;;;;;;688594;28;1332;-86
2022/03/13 00:51:20;;;;;;;;;;;20.50;36.10;;;;;;687827;28;1271;-89
2022/03/13 00:51:40;;;;;;;;;;;20.50;36.20;;;;;;685523;28;1334;-91
2022/03/13 00:52:02;;;;;;;;;;;20.50;35.90;;;;;;684753;28;1340;-88
2022/03/13 00:52:22;;;;;;;;;;;20.50;36.40;;;;;;685119;28;1330;-89
2022/03/13 00:52:44;;;;;;;;;;;20.50;36.10;;;;;;685294;28;1341;-86
2022/03/13 00:53:07;;;;;;;;;;;20.50;35.80;;;;;;685801;28;1189;-89
2022/03/13 00:53:28;;;;;;;;;;;20.50;36.50;;;;;;684497;28;1479;-90
2022/03/13 00:53:49;;;;;;;;;;;20.50;35.80;;;;;;683630;28;1992;-91
2022/03/13 00:54:09;;;;;;;;;;;20.50;36.10;;;;;;684213;28;1249;-86
2022/03/13 00:54:30;;;;;;;;;;;20.50;36.10;;;;;;684354;28;1118;-88
2022/03/13 00:54:50;;;;;;;;;;;20.50;36.20;;;;;;681233;28;1277;-88
2022/03/13 00:55:11;;;;;;;;;;;20.50;35.80;;;;;;681879;28;1241;-90
2022/03/13 00:55:32;;;;;;;;;;;20.50;35.70;;;;;;681351;28;1225;-91
2022/03/13 00:55:53;;;;;;;;;;;20.50;35.70;;;;;;684405;28;1463;-88
2022/03/13 00:56:14;;;;;;;;;;;20.50;36.00;;;;;;684697;28;1236;-88
2022/03/13 00:56:34;;;;;;;;;;;20.50;35.70;;;;;;684623;28;1157;-89
2022/03/13 00:56:55;;;;;;;;;;;20.50;36.60;;;;;;687379;28;1434;-89
2022/03/13 00:57:17;;;;;;;;;;;20.50;36.70;;;;;;685624;28;1232;-88
2022/03/13 00:57:37;;;;;;;;;;;20.50;36.50;;;;;;685185;28;1246;-91
2022/03/13 00:57:58;;;;;;;;;;;20.50;36.00;;;;;;684502;28;1350;-89
2022/03/13 00:58:19;;;;;;;;;;;20.50;36.00;;;;;;683946;28;1299;-90
2022/03/13 00:58:40;;;;;;;;;;;20.50;35.60;;;;;;683874;28;1209;-92
2022/03/13 00:59:01;;;;;;;;;;;20.50;35.70;;;;;;683333;28;1256;-84
2022/03/13 00:59:21;;;;;;;;;;;20.50;36.00;;;;;;684468;28;1322;-90
2022/03/13 00:59:42;;;;;;;;;;;20.50;35.70;;;;;;686293;28;1230;-90
2022/03/13 01:00:04;;;;;;;;;;;20.60;35.60;;;;;;686094;28;1703;-88
2022/03/13 01:00:24;;;;;;;;;;;20.50;35.70;;;;;;686026;28;1325;-89
2022/03/13 01:00:45;;;;;;;;;;;20.50;35.60;;;;;;685074;28;1243;-91
2022/03/13 01:01:05;;;;;;;;;;;20.50;36.30;;;;;;685577;28;1272;-91
2022/03/13 01:01:26;;;;;;;;;;;20.50;35.80;;;;;;684502;28;1412;-88
2022/03/13 01:01:47;;;;;;;;;;;20.50;35.80;;;;;;685200;28;1120;-88
2022/03/13 01:02:09;;;;;;;;;;;20.50;36.00;;;;;;684909;28;1200;-90
2022/03/13 01:02:30;;;;;;;;;;;20.50;35.80;;;;;;685070;28;1125;-90
2022/03/13 01:02:51;;;;;;;;;;;20.50;35.70;;;;;;685491;28;1398;-88
2022/03/13 01:03:17;;;;;;;;;;;20.50;36.10;;;;;;685106;28;1207;-89
2022/03/13 01:03:38;;;;;;;;;;;20.50;35.60;;;;;;685563;28;1494;-90
2022/03/13 01:03:58;;;;;;;;;;;20.50;36.20;;;;;;685705;28;1180;-91
2022/03/13 01:04:19;;;;;;;;;;;20.50;36.80;;;;;;682746;28;1248;-89
2022/03/13 01:04:40;;;;;;;;;;;20.50;35.60;;;;;;683536;28;1379;-89
2022/03/13 01:05:00;;;;;;;;;;;20.50;35.50;;;;;;685271;28;1160;-86
2022/03/13 01:05:26;;;;;;;;;;;20.50;36.10;;;;;;685335;28;1314;-88
2022/03/13 01:05:46;;;;;;;;;;;20.50;35.50;;;;;;685835;28;1279;-84
2022/03/13 01:06:08;;;;;;;;;;;20.50;35.50;;;;;;683617;28;1313;-87
2022/03/13 01:06:29;;;;;;;;;;;20.50;35.80;;;;;;685281;28;1360;-89
2022/03/13 01:06:49;;;;;;;;;;;20.50;35.50;;;;;;682898;28;1291;-87
2022/03/13 01:07:10;;;;;;;;;;;20.50;35.60;;;;;;680413;29;1210;-89
2022/03/13 01:07:30;;;;;;;;;;;20.50;36.20;;;;;;680198;29;1484;-91
2022/03/13 01:07:52;;;;;;;;;;;20.50;35.70;;;;;;679401;28;1316;-88
2022/03/13 01:08:12;;;;;;;;;;;20.50;35.60;;;;;;681264;29;1166;-90
2022/03/13 01:08:33;;;;;;;;;;;20.50;36.00;;;;;;681397;28;1455;-89
2022/03/13 01:08:54;;;;;;;;;;;20.50;35.60;;;;;;683796;28;1189;-89
2022/03/13 01:09:14;;;;;;;;;;;20.50;35.70;;;;;;685666;28;1179;-89
2022/03/13 01:09:36;;;;;;;;;;;20.50;35.50;;;;;;684974;28;1553;-89
2022/03/13 01:09:57;;;;;;;;;;;20.50;35.70;;;;;;684093;28;1383;-92
2022/03/13 01:10:18;;;;;;;;;;;18.80;35.00;;;;;;684213;28;1204;-91
2022/03/13 01:10:38;;;;;;;;;;;20.50;35.60;;;;;;680835;28;1503;-90
2022/03/13 01:11:00;;;;;;;;;;;20.50;35.60;;;;;;681214;28;1374;-90
2022/03/13 01:11:21;;;;;;;;;;;20.50;35.50;;;;;;681265;28;1532;-91
2022/03/13 01:11:41;;;;;;;;;;;20.50;35.70;;;;;;681710;28;1219;-88
2022/03/13 01:12:02;;;;;;;;;;;20.50;36.20;;;;;;683782;28;1187;-90
2022/03/13 01:12:23;;;;;;;;;;;20.50;35.70;;;;;;682377;28;1290;-89
2022/03/13 01:12:46;;;;;;;;;;;20.50;35.50;;;;;;684577;28;1252;-91
2022/03/13 01:13:06;;;;;;;;;;;20.50;35.50;;;;;;684889;28;1284;-92
2022/03/13 01:13:27;;;;;;;;;;;20.50;35.80;;;;;;684259;28;1399;-92
2022/03/13 01:13:48;;;;;;;;;;;20.50;35.80;;;;;;682319;28;1390;-86
2022/03/13 01:14:09;;;;;;;;;;;20.50;35.60;;;;;;682515;28;1910;-90
2022/03/13 01:14:32;;;;;;;;;;;20.50;35.50;;;;;;683672;28;1328;-92
2022/03/13 01:14:53;;;;;;;;;;;20.50;35.40;;;;;;683958;28;1267;-91
2022/03/13 01:15:14;;;;;;;;;;;19.90;35.50;;;;;;683856;28;1516;-90
2022/03/13 01:15:38;;;;;;;;;;;20.50;35.50;;;;;;683724;28;1207;-91
2022/03/13 01:16:00;;;;;;;;;;;20.50;35.40;;;;;;683682;28;1251;-92
2022/03/13 01:16:22;;;;;;;;;;;20.50;35.40;;;;;;683817;28;1531;-87
2022/03/13 01:16:43;;;;;;;;;;;20.50;35.50;;;;;;684496;28;1357;-87
2022/03/13 01:17:05;;;;;;;;;;;20.50;35.50;;;;;;684114;28;1296;-91
2022/03/13 01:17:26;;;;;;;;;;;20.50;35.30;;;;;;684556;28;1323;-85
2022/03/13 01:17:47;;;;;;;;;;;20.50;35.60;;;;;;681579;28;1180;-89
2022/03/13 01:18:07;;;;;;;;;;;20.50;35.80;;;;;;681554;28;1471;-92
2022/03/13 01:18:28;;;;;;;;;;;20.50;36.80;;;;;;681455;28;1268;-92
2022/03/13 01:18:50;;;;;;;;;;;20.50;35.80;;;;;;682501;28;1344;-90
2022/03/13 01:19:10;;;;;;;;;;;20.50;35.50;;;;;;682914;28;1634;-88
2022/03/13 01:19:34;;;;;;;;;;;20.20;35.70;;;;;;684873;28;1377;-90
2022/03/13 01:19:56;;;;;;;;;;;21.40;37.90;;;;;;684091;28;1240;-90
2022/03/13 01:20:18;;;;;;;;;;;20.50;35.50;;;;;;684263;28;1259;-92
2022/03/13 01:20:39;;;;;;;;;;;20.50;36.20;;;;;;683692;28;1319;-89
2022/03/13 01:21:00;;;;;;;;;;;20.40;35.20;;;;;;684212;28;1445;-91
2022/03/13 01:21:21;;;;;;;;;;;20.50;35.40;;;;;;683143;28;1287;-94
2022/03/13 01:21:42;;;;;;;;;;;18.90;35.40;;;;;;682716;28;1321;-88
2022/03/13 01:22:03;;;;;;;;;;;20.50;35.90;;;;;;685129;28;1211;-90
2022/03/13 01:22:23;;;;;;;;;;;20.50;35.30;;;;;;684547;28;1232;-90
2022/03/13 01:22:45;;;;;;;;;;;20.50;35.20;;;;;;685346;28;1248;-91
2022/03/13 01:23:07;;;;;;;;;;;20.50;36.00;;;;;;685413;28;1302;-87
2022/03/13 01:23:28;;;;;;;;;;;20.30;35.10;;;;;;683223;28;1358;-89
2022/03/13 01:24:03;;;;;;;;;;;20.50;35.70;;;;;;683577;28;1344;-90
2022/03/13 01:24:26;;;;;;;;;;;20.50;35.30;;;;;;683795;28;1176;-87
2022/03/13 01:24:49;;;;;;;;;;;20.50;35.40;;;;;;685008;28;1223;-92
2022/03/13 01:25:10;;;;;;;;;;;20.50;36.70;;;;;;682617;28;1399;-89
2022/03/13 01:25:30;;;;;;;;;;;20.50;36.10;;;;;;685894;28;1175;-91
2022/03/13 01:26:11;;;;;;;;;;;20.60;36.00;;;;;;684589;28;1391;-90
2022/03/13 01:26:43;;;;;;;;;;;20.50;35.40;;;;;;685628;28;1425;-89
2022/03/13 01:27:03;;;;;;;;;;;20.50;35.60;;;;;;686005;28;1227;-90
2022/03/13 01:27:24;;;;;;;;;;;20.40;37.40;;;;;;684094;28;1502;-94
2022/03/13 01:27:45;;;;;;;;;;;20.50;42.00;;;;;;683130;28;1386;-92
2022/03/13 01:28:05;;;;;;;;;;;20.60;37.30;;;;;;683964;28;1285;-88
2022/03/13 01:28:26;;;;;;;;;;;20.40;35.60;;;;;;683047;28;1256;-85
2022/03/13 01:28:47;;;;;;;;;;;20.40;35.40;;;;;;683754;28;1290;-89
2022/03/13 01:29:09;;;;;;;;;;;20.40;36.20;;;;;;683612;28;1169;-88
2022/03/13 01:29:31;;;;;;;;;;;20.40;35.30;;;;;;683614;28;1336;-84
2022/03/13 01:29:54;;;;;;;;;;;20.40;35.40;;;;;;683639;28;1259;-91
2022/03/13 01:30:14;;;;;;;;;;;20.40;35.30;;;;;;684607;28;1240;-90
2022/03/13 01:30:35;;;;;;;;;;;20.40;35.30;;;;;;683836;28;1192;-87
2022/03/13 01:30:55;;;;;;;;;;;20.40;35.80;;;;;;683901;28;1196;-90
2022/03/13 01:31:19;;;;;;;;;;;20.40;35.30;;;;;;683646;28;1316;-89
2022/03/13 01:31:42;;;;;;;;;;;20.20;35.10;;;;;;684036;28;1304;-90
2022/03/13 01:32:02;;;;;;;;;;;20.40;35.40;;;;;;684235;28;1200;-91
2022/03/13 01:32:26;;;;;;;;;;;20.40;35.50;;;;;;684819;28;1184;-93
2022/03/13 01:32:51;;;;;;;;;;;20.50;36.70;;;;;;683802;28;1563;-93
2022/03/13 01:33:12;;;;;;;;;;;20.30;35.30;;;;;;683711;28;1216;-91
2022/03/13 01:33:35;;;;;;;;;;;20.50;36.40;;;;;;684246;28;1183;-94
2022/03/13 01:33:56;;;;;;;;;;;20.40;35.30;;;;;;683826;28;1938;-88
2022/03/13 01:34:32;;;;;;;;;;;20.40;35.40;;;;;;684758;28;1161;-92
2022/03/13 01:34:54;;;;;;;;;;;20.40;35.10;;;;;;681290;28;1462;-87
2022/03/13 01:35:18;;;;;;;;;;;19.30;34.50;;;;;;681861;28;1361;-94
2022/03/13 01:35:39;;;;;;;;;;;20.40;35.30;;;;;;680079;28;1433;-84
2022/03/13 01:35:59;;;;;;;;;;;19.80;36.50;;;;;;681956;28;1265;-91
2022/03/13 01:36:20;;;;;;;;;;;19.30;34.80;;;;;;679510;29;1418;-92
2022/03/13 01:36:41;;;;;;;;;;;20.40;35.00;;;;;;680686;28;1422;-92
2022/03/13 01:37:24;;;;;;;;;;;20.50;35.50;;;;;;682696;28;1209;-93
2022/03/13 01:37:44;;;;;;;;;;;20.40;35.00;;;;;;684126;28;1410;-92
2022/03/13 01:38:05;;;;;;;;;;;20.50;35.10;;;;;;685119;28;1227;-87
2022/03/13 01:38:31;;;;;;;;;;;20.40;35.00;;;;;;686831;28;1215;-94
2022/03/13 01:38:53;;;;;;;;;;;20.40;35.00;;;;;;686436;28;1207;-89
2022/03/13 01:39:14;;;;;;;;;;;20.40;35.10;;;;;;686968;28;1274;-91
2022/03/13 01:39:35;;;;;;;;;;;20.40;35.40;;;;;;686923;28;1773;-90
2022/03/13 01:39:56;;;;;;;;;;;20.40;35.80;;;;;;686437;28;1239;-93
2022/03/13 01:40:21;;;;;;;;;;;20.40;36.10;;;;;;686838;28;1168;-91
2022/03/13 01:40:42;;;;;;;;;;;20.50;36.60;;;;;;686119;28;1366;-91
2022/03/13 01:41:03;;;;;;;;;;;20.40;37.00;;;;;;682092;28;1225;-92
2022/03/13 01:41:25;;;;;;;;;;;20.40;35.80;;;;;;682371;28;1447;-94
2022/03/13 01:41:45;;;;;;;;;;;20.40;35.40;;;;;;682074;28;1386;-89
2022/03/13 01:42:06;;;;;;;;;;;20.40;37.30;;;;;;681504;28;1339;-86
2022/03/13 01:42:27;;;;;;;;;;;20.40;35.70;;;;;;681172;28;1562;-90
2022/03/13 01:42:48;;;;;;;;;;;20.40;35.10;;;;;;679645;28;1358;-93
2022/03/13 01:43:08;;;;;;;;;;;20.40;37.30;;;;;;682590;28;1430;-93
2022/03/13 01:43:44;;;;;;;;;;;20.60;37.60;;;;;;682824;28;1267;-91
2022/03/13 01:44:05;;;;;;;;;;;20.50;35.00;;;;;;684878;28;1471;-92
2022/03/13 01:44:26;;;;;;;;;;;20.40;36.90;;;;;;684143;28;1224;-90
2022/03/13 01:44:47;;;;;;;;;;;20.40;35.60;;;;;;684072;28;1161;-89
2022/03/13 01:45:12;;;;;;;;;;;20.40;35.30;;;;;;683594;28;1362;-93
2022/03/13 01:45:33;;;;;;;;;;;20.40;35.00;;;;;;683718;28;1603;-91
2022/03/13 01:45:53;;;;;;;;;;;20.40;35.20;;;;;;684052;28;1445;-91
2022/03/13 01:46:15;;;;;;;;;;;20.40;35.40;;;;;;683848;28;1174;-86
2022/03/13 01:46:35;;;;;;;;;;;20.20;35.60;;;;;;684260;28;1279;-92
2022/03/13 01:46:56;;;;;;;;;;;20.40;35.10;;;;;;683958;28;1282;-82
2022/03/13 01:47:16;;;;;;;;;;;20.40;35.00;;;;;;683928;28;1389;-92
2022/03/13 01:47:37;;;;;;;;;;;19.70;36.20;;;;;;684262;28;1491;-92
2022/03/13 01:47:58;;;;;;;;;;;20.40;35.40;;;;;;682187;28;1255;-90
2022/03/13 01:48:18;;;;;;;;;;;20.40;35.30;;;;;;682302;28;1176;-86
2022/03/13 01:48:50;;;;;;;;;;;20.40;35.00;;;;;;681888;28;1161;-91
2022/03/13 01:49:11;;;;;;;;;;;20.40;34.90;;;;;;684056;28;1366;-85
2022/03/13 01:49:32;;;;;;;;;;;19.80;35.40;;;;;;684952;28;1201;-90
2022/03/13 01:49:52;;;;;;;;;;;20.40;34.90;;;;;;684404;28;1478;-91
2022/03/13 01:50:14;;;;;;;;;;;22.50;36.20;;;;;;684981;28;1187;-88
2022/03/13 01:50:34;;;;;;;;;;;20.40;35.10;;;;;;684064;28;1180;-93
2022/03/13 01:50:55;;;;;;;;;;;20.40;35.50;;;;;;684097;28;1403;-90
2022/03/13 01:51:16;;;;;;;;;;;20.40;35.30;;;;;;682086;28;1224;-89
2022/03/13 01:51:37;;;;;;;;;;;20.40;35.10;;;;;;679513;28;1219;-91
2022/03/13 01:51:58;;;;;;;;;;;20.40;35.30;;;;;;676168;29;1309;-89
2022/03/13 01:52:38;;;;;;;;;;;20.40;35.70;;;;;;678597;29;1108;-92
2022/03/13 01:52:58;;;;;;;;;;;19.30;34.30;;;;;;679712;28;1507;-88
2022/03/13 01:53:21;;;;;;;;;;;20.40;35.00;;;;;;679651;28;1418;-88
2022/03/13 01:53:43;;;;;;;;;;;19.20;34.40;;;;;;682950;28;1228;-90
2022/03/13 01:54:04;;;;;;;;;;;20.40;35.00;;;;;;684561;28;2001;-88
2022/03/13 01:54:24;;;;;;;;;;;20.40;34.90;;;;;;684321;28;1215;-92
2022/03/13 01:54:45;;;;;;;;;;;20.30;36.50;;;;;;685028;28;1271;-89
2022/03/13 01:55:07;;;;;;;;;;;20.40;35.70;;;;;;682916;28;1402;-85
2022/03/13 01:55:27;;;;;;;;;;;18.90;34.40;;;;;;684003;28;1396;-90
2022/03/13 01:55:48;;;;;;;;;;;20.40;36.30;;;;;;682618;28;1343;-90
2022/03/13 01:56:09;;;;;;;;;;;20.40;37.90;;;;;;682714;28;1209;-89
2022/03/13 01:56:31;;;;;;;;;;;20.40;35.50;;;;;;679999;28;1406;-90
2022/03/13 01:56:52;;;;;;;;;;;20.40;34.90;;;;;;681511;28;1325;-93
2022/03/13 01:57:15;;;;;;;;;;;20.40;34.90;;;;;;681953;28;1193;-87
2022/03/13 01:57:39;;;;;;;;;;;20.40;35.20;;;;;;683304;28;1244;-87
2022/03/13 01:57:59;;;;;;;;;;;20.40;35.00;;;;;;684487;28;1183;-85
2022/03/13 01:58:20;;;;;;;;;;;20.40;35.10;;;;;;684314;28;1125;-87
2022/03/13 01:58:40;;;;;;;;;;;20.40;34.90;;;;;;683491;28;1383;-87
2022/03/13 01:59:02;;;;;;;;;;;20.40;36.00;;;;;;683254;28;1172;-90
2022/03/13 01:59:22;;;;;;;;;;;20.30;35.00;;;;;;684405;28;1361;-87
2022/03/13 01:59:43;;;;;;;;;;;20.40;35.10;;;;;;683769;28;1419;-91
2022/03/13 02:00:06;;;;;;;;;;;20.30;35.40;;;;;;683900;28;1500;-89
2022/03/13 02:00:27;;;;;;;;;;;20.40;35.60;;;;;;681141;28;1205;-86
2022/03/13 02:00:50;;;;;;;;;;;20.40;34.90;;;;;;679947;28;1349;-90
2022/03/13 02:01:11;;;;;;;;;;;20.20;36.20;;;;;;677636;28;1302;-91
2022/03/13 02:01:32;;;;;;;;;;;19.70;34.90;;;;;;677000;29;1255;-85
2022/03/13 02:01:52;;;;;;;;;;;20.40;35.00;;;;;;678000;29;1170;-89
2022/03/13 02:02:13;;;;;;;;;;;20.40;35.30;;;;;;677985;29;1240;-90
2022/03/13 02:02:34;;;;;;;;;;;20.30;35.30;;;;;;677145;29;1338;-90
2022/03/13 02:02:54;;;;;;;;;;;20.40;35.40;;;;;;680124;28;1295;-85
2022/03/13 02:03:16;;;;;;;;;;;19.80;34.40;;;;;;680377;28;1280;-88
2022/03/13 02:03:36;;;;;;;;;;;20.30;36.20;;;;;;680292;28;1411;-89
2022/03/13 02:03:57;;;;;;;;;;;20.30;35.50;;;;;;680264;28;1200;-89
2022/03/13 02:04:23;;;;;;;;;;;20.40;34.80;;;;;;681082;28;1308;-89
2022/03/13 02:04:49;;;;;;;;;;;20.30;35.30;;;;;;682272;28;1207;-90
2022/03/13 02:05:16;;;;;;;;;;;20.30;34.60;;;;;;681218;28;1333;-90
2022/03/13 02:05:37;;;;;;;;;;;20.30;34.70;;;;;;685080;28;1250;-90
2022/03/13 02:05:58;;;;;;;;;;;20.40;34.90;;;;;;685756;28;1582;-89
2022/03/13 02:06:20;;;;;;;;;;;20.40;35.00;;;;;;685298;28;1330;-90
2022/03/13 02:06:40;;;;;;;;;;;20.30;34.70;;;;;;683276;28;1413;-89
2022/03/13 02:07:01;;;;;;;;;;;20.30;34.70;;;;;;683097;28;1243;-91
2022/03/13 02:07:31;;;;;;;;;;;20.30;34.80;;;;;;684055;28;1363;-90
2022/03/13 02:07:51;;;;;;;;;;;20.30;34.70;;;;;;684307;28;1180;-90
2022/03/13 02:08:13;;;;;;;;;;;20.30;34.90;;;;;;683590;28;1236;-89
2022/03/13 02:08:35;;;;;;;;;;;20.30;34.80;;;;;;684064;28;1388;-91
2022/03/13 02:08:56;;;;;;;;;;;20.30;35.20;;;;;;684641;28;1207;-87
2022/03/13 02:09:17;;;;;;;;;;;20.30;35.40;;;;;;681939;28;1317;-91
2022/03/13 02:09:38;;;;;;;;;;;20.40;35.00;;;;;;682122;28;1406;-86
2022/03/13 02:09:58;;;;;;;;;;;20.30;35.00;;;;;;681270;28;1433;-90
2022/03/13 02:10:19;;;;;;;;;;;20.30;34.70;;;;;;682645;28;1468;-86
2022/03/13 02:10:39;;;;;;;;;;;20.30;34.70;;;;;;684388;28;1247;-91
2022/03/13 02:11:00;;;;;;;;;;;20.30;34.70;;;;;;683967;28;1231;-88